Observations for EXETER AIRPORT, United Kingdom (EGTE)

EGTE 260520Z 02004KT 3000 BR BKN001 15/15 Q1019 
EGTE 260450Z VRB03KT 3000 BR BKN001 15/15 Q1019 
EGTE 260420Z 31004KT 280V350 3000 BR BKN001 16/16 Q1019 
EGTE 260220Z 32005KT 0500 R26/0900 FG OVC001 16/16 Q1019
EGTE 260150Z VRB03KT 0400 R26/0900 FG OVC001 15/15 Q1019
EGTE 260120Z 33004KT 290V350 0900 R26/1500 FG OVC001 16/16 Q1019
EGTE 260050Z 31005KT 280V340 4000 BR BKN002 BKN005 14/14 Q1019  
EGTE 260020Z VRB03KT 9999 NSC 15/14 Q1019   
EGTE 252350Z 33003KT 9999 NSC 15/14 Q1019   
EGTE 252320Z 32003KT CAVOK 15/15 Q1019  
EGTE 252250Z 29004KT 260V320 CAVOK 15/15 Q1019  
EGTE 252220Z 28004KT CAVOK 16/16 Q1019  
EGTE 252150Z 30005KT CAVOK 17/16 Q1019  
EGTE 252120Z 27005KT CAVOK 17/16 Q1019  
EGTE 252050Z 30004KT CAVOK 18/16 Q1019  
EGTE 252020Z VRB03KT CAVOK 18/15 Q1019  
EGTE 251950Z 31006KT 280V340 CAVOK 18/15 Q1019  
EGTE 251920Z 30004KT 250V350 9999 FEW049 20/16 Q1019
EGTE 251850Z 31007KT 280V340 9999 FEW049 21/17 Q1018
EGTE 251820Z 31008KT 9999 FEW040 22/17 Q1018
EGTE 251820Z 31008KT 9999 R26/0500 FEW040 22/17 Q1018
EGTE 251750Z 30007KT 270V330 9999 FEW040 25/18 Q1018
EGTE 251720Z 30007KT 270V330 9999 FEW045 26/17 Q1017
EGTE 251650Z 31006KT 280V340 9999 FEW045 25/15 Q1017
EGTE 251620Z 30004KT 240V010 9999 FEW045 27/15 Q1017
EGTE 251550Z VRB03KT 9999 FEW045 27/14 Q1017
EGTE 251520Z VRB02KT 9999 FEW045 26/14 Q1017
EGTE 251450Z VRB02KT 9999 FEW045 25/14 Q1017
EGTE 251420Z VRB04KT CAVOK 26/15 Q1018  
EGTE 251350Z 33004KT 290V010 CAVOK 25/15 Q1017  
EGTE 251320Z VRB03KT CAVOK 25/16 Q1018  
EGTE 251250Z 32004KT 280V030 9999 FEW020 25/17 Q1018
EGTE 251220Z 29005KT 210V340 9999 FEW020 24/16 Q1018
EGTE 251150Z 27005KT 210V340 9999 FEW020 24/17 Q1018
EGTE 251120Z VRB03KT 9999 FEW020 23/16 Q1018
EGTE 251050Z 30005KT 250V330 9999 FEW020 22/16 Q1018
EGTE 251020Z 29006KT 250V340 9999 FEW020 23/18 Q1018
EGTE 250950Z 31006KT 270V340 9999 FEW012 22/17 Q1018
EGTE 250920Z 30006KT 250V330 9000 SCT012 20/16 Q1018
EGTE 250850Z 32006KT 280V340 9000 BKN010 19/17 Q1017
EGTE 250820Z 32004KT 250V050 9000 BKN008 18/16 Q1017
EGTE 250750Z 31004KT 280V350 8000 3000E VCFG FEW003 17/17 Q1017 
EGTE 250720Z 32005KT 290V350 1500 R26/1300 BR OVC002 16/16 Q1017
EGTE 250650Z 31005KT 280V350 0500 R26/0800 FG VV/// 16/16 Q1016 
EGTE 250620Z 31004KT 270V340 0500 R26/1600 FG VV/// 16/16 Q1016 
EGTE 250550Z 33004KT 4000 1700E BR VCFG NSC 14/13 Q1016 
EGTE 250520Z 04002KT 7000 MIFG NSC 13/12 Q1016  
EGTE 250450Z 06001KT 9000 NSC 14/14 Q1016